Time;durP1;ratioP1;P1;durP2;ratioP2;P2;SDS_P1;SDS_P2;PMS_P1;PMS_P2;Temp;Humidity;BMP_temperature;BMP_pressure;BME280_temperature;BME280_humidity;BME280_pressure;Samples;Min_cycle;Max_cycle;Signal;HPM_P1;HPM_P2
2022/02/05 00:52:18;;;;;;;30.55;11.20;;;;;;;;;;19588049;30;20080;-58
2022/02/05 01:02:20;;;;;;;30.10;10.43;;;;;;;;;;19587856;30;20063;-59
2022/02/05 01:12:24;;;;;;;35.55;11.88;;;;;;;;;;19587681;30;20072;-59
2022/02/05 01:22:26;;;;;;;27.47;13.00;;;;;;;;;;19836556;29;20062;-60
2022/02/05 01:32:30;;;;;;;23.50;12.77;;;;;;;;;;19889998;29;20108;-58
2022/02/05 02:24:13;;;;;;;25.52;12.02;;;;;;;;;;19866527;29;20078;-58
2022/02/05 02:34:20;;;;;;;25.38;12.35;;;;;;;;;;19892725;29;20094;-58
2022/02/05 02:44:22;;;;;;;19.10;12.55;;;;;;;;;;19884109;29;20086;-59
2022/02/05 03:04:46;;;;;;;22.83;11.23;;;;;;;;;;19898887;29;20059;-57
2022/02/05 03:14:48;;;;;;;20.38;10.48;;;;;;;;;;19883316;29;20138;-58
2022/02/05 03:24:50;;;;;;;18.55;10.75;;;;;;;;;;19897206;29;20151;-58
2022/02/05 03:34:52;;;;;;;21.75;10.65;;;;;;;;;;19897173;29;20058;-58
2022/02/05 03:45:10;;;;;;;19.02;10.15;;;;;;;;;;19896465;29;20051;-57
2022/02/05 03:55:31;;;;;;;18.83;10.70;;;;;;;;;;19895447;29;20062;-58
2022/02/05 04:05:40;;;;;;;21.08;10.77;;;;;;;;;;19895003;29;20054;-60
2022/02/05 04:26:42;;;;;;;22.30;10.80;;;;;;;;;;19892520;29;20063;-59
2022/02/05 04:37:05;;;;;;;19.63;10.63;;;;;;;;;;19893442;29;20055;-59
2022/02/05 05:29:21;;;;;;;19.17;9.23;;;;;;;;;;19890688;29;20081;-57
2022/02/05 05:39:44;;;;;;;16.17;8.90;;;;;;;;;;19877902;29;20437;-57
2022/02/05 05:50:33;;;;;;;16.73;9.90;;;;;;;;;;19889718;29;20100;-58
2022/02/05 06:00:50;;;;;;;17.25;9.02;;;;;;;;;;19889957;29;20458;-58
2022/02/05 06:11:12;;;;;;;13.55;8.05;;;;;;;;;;19897213;29;20108;-58
2022/02/05 06:21:33;;;;;;;18.42;9.35;;;;;;;;;;19901609;29;20112;-57
2022/02/05 06:31:55;;;;;;;13.18;7.95;;;;;;;;;;19901188;29;20055;-60
2022/02/05 06:42:16;;;;;;;20.23;8.30;;;;;;;;;;19900710;29;20058;-56
2022/02/05 06:52:38;;;;;;;11.27;6.10;;;;;;;;;;19900276;29;20062;-57
2022/02/05 07:03:00;;;;;;;14.90;6.63;;;;;;;;;;19888901;29;20062;-59
2022/02/05 07:13:22;;;;;;;13.52;8.50;;;;;;;;;;19898749;29;20055;-57
2022/02/05 07:33:53;;;;;;;9.73;6.35;;;;;;;;;;19896267;29;20080;-57
2022/02/05 07:44:02;;;;;;;12.95;7.18;;;;;;;;;;19896947;29;20521;-55
2022/02/05 07:54:22;;;;;;;15.45;7.45;;;;;;;;;;19894729;29;20063;-59
2022/02/05 08:04:36;;;;;;;12.65;7.97;;;;;;;;;;19894557;29;20093;-58
2022/02/05 08:14:48;;;;;;;11.88;6.68;;;;;;;;;;19893662;29;20065;-57
2022/02/05 08:24:50;;;;;;;12.85;7.15;;;;;;;;;;19893566;29;20055;-57
2022/02/05 08:35:00;;;;;;;12.45;5.57;;;;;;;;;;19891414;29;20097;-58
2022/02/05 08:45:06;;;;;;;11.23;6.57;;;;;;;;;;19892546;29;20408;-57
2022/02/05 08:55:10;;;;;;;10.63;5.83;;;;;;;;;;19890815;29;20058;-57
2022/02/05 09:15:29;;;;;;;12.95;7.57;;;;;;;;;;19889043;29;20408;-58
2022/02/05 09:25:31;;;;;;;15.07;9.38;;;;;;;;;;19888571;29;20063;-58
2022/02/05 09:35:33;;;;;;;15.70;8.98;;;;;;;;;;19888394;29;20051;-58
2022/02/05 09:45:36;;;;;;;17.38;7.70;;;;;;;;;;19896136;29;20089;-58
2022/02/05 09:55:38;;;;;;;13.18;7.55;;;;;;;;;;19903442;29;20066;-58
2022/02/05 10:05:42;;;;;;;9.43;6.78;;;;;;;;;;19902903;29;20082;-60
2022/02/05 10:15:43;;;;;;;9.02;5.80;;;;;;;;;;19902016;29;20412;-63
2022/02/05 10:25:50;;;;;;;8.88;5.30;;;;;;;;;;19901309;29;20086;-60
2022/02/05 10:36:15;;;;;;;8.18;4.03;;;;;;;;;;19900301;29;20055;-59
2022/02/05 10:46:17;;;;;;;6.63;4.10;;;;;;;;;;19900435;29;20094;-59
2022/02/05 11:06:25;;;;;;;3.88;2.83;;;;;;;;;;19898678;29;20057;-59
2022/02/05 11:26:51;;;;;;;5.20;1.70;;;;;;;;;;19896105;29;20059;-57
2022/02/05 11:37:02;;;;;;;5.53;1.95;;;;;;;;;;19895915;29;20462;-57
2022/02/05 11:47:04;;;;;;;4.40;1.52;;;;;;;;;;19895645;29;20055;-57
2022/02/05 11:57:08;;;;;;;3.83;1.40;;;;;;;;;;19894697;29;20449;-57
2022/02/05 12:07:11;;;;;;;3.60;1.20;;;;;;;;;;19893607;29;20133;-57
2022/02/05 12:17:17;;;;;;;3.03;1.20;;;;;;;;;;19893525;29;20531;-57
2022/02/05 12:27:32;;;;;;;3.28;1.02;;;;;;;;;;19893351;29;20535;-60
2022/02/05 12:37:35;;;;;;;2.85;1.23;;;;;;;;;;19892477;29;20145;-57
2022/02/05 12:47:42;;;;;;;2.10;1.08;;;;;;;;;;19891326;29;20062;-59
2022/02/05 12:57:46;;;;;;;7.05;3.20;;;;;;;;;;19891197;29;20051;-58
2022/02/05 13:07:52;;;;;;;3.97;1.85;;;;;;;;;;19891031;29;20066;-59
2022/02/05 13:38:19;;;;;;;7.45;2.38;;;;;;;;;;19889062;29;20063;-58
2022/02/05 13:48:25;;;;;;;3.42;2.00;;;;;;;;;;19888880;29;20114;-59
2022/02/05 13:58:36;;;;;;;2.65;1.50;;;;;;;;;;19888669;29;20469;-59
2022/02/05 14:08:43;;;;;;;6.57;2.92;;;;;;;;;;19887276;29;20147;-57
2022/02/05 14:18:47;;;;;;;3.42;1.40;;;;;;;;;;19887090;29;20085;-57
2022/02/05 14:28:52;;;;;;;3.80;1.73;;;;;;;;;;19890730;29;20059;-56
2022/02/05 14:49:16;;;;;;;7.10;2.85;;;;;;;;;;19899303;29;20100;-59
2022/02/05 14:59:17;;;;;;;4.03;1.77;;;;;;;;;;19899219;29;20059;-60
2022/02/05 15:09:21;;;;;;;6.20;2.80;;;;;;;;;;19882585;29;20054;-57
2022/02/05 15:19:23;;;;;;;9.18;2.83;;;;;;;;;;19897962;29;20067;-60
2022/02/05 15:29:25;;;;;;;3.70;2.05;;;;;;;;;;19897784;29;20496;-60
2022/02/05 15:49:54;;;;;;;6.80;1.70;;;;;;;;;;19867822;29;20054;-59
2022/02/05 16:10:04;;;;;;;5.88;1.70;;;;;;;;;;19894462;29;20055;-61
2022/02/05 16:20:07;;;;;;;4.13;1.83;;;;;;;;;;19876913;29;20059;-60
2022/02/05 16:30:10;;;;;;;3.10;1.50;;;;;;;;;;19892251;29;20062;-58
2022/02/05 16:40:15;;;;;;;3.47;1.75;;;;;;;;;;19890374;29;20063;-58
2022/02/05 16:50:19;;;;;;;3.47;1.40;;;;;;;;;;19888396;29;20054;-59
2022/02/05 17:00:21;;;;;;;3.63;2.00;;;;;;;;;;19889111;29;20105;-59
2022/02/05 17:10:23;;;;;;;6.03;2.20;;;;;;;;;;19889146;29;20101;-60
2022/02/05 17:20:29;;;;;;;10.20;2.63;;;;;;;;;;19889140;29;20111;-61
2022/02/05 17:30:31;;;;;;;6.43;2.22;;;;;;;;;;19887801;29;20535;-59
2022/02/05 17:40:33;;;;;;;6.60;2.15;;;;;;;;;;19887385;29;20071;-59
2022/02/05 17:50:35;;;;;;;5.18;2.05;;;;;;;;;;19886365;29;20058;-62
2022/02/05 18:00:37;;;;;;;2.80;1.60;;;;;;;;;;19887615;29;20119;-60
2022/02/05 18:10:47;;;;;;;6.53;2.22;;;;;;;;;;19901517;29;20142;-59
2022/02/05 18:20:49;;;;;;;13.82;2.75;;;;;;;;;;19899109;29;20116;-60
2022/02/05 18:30:51;;;;;;;5.28;2.03;;;;;;;;;;19882515;29;20059;-59
2022/02/05 18:40:53;;;;;;;3.65;1.98;;;;;;;;;;19898326;29;20066;-59
2022/02/05 18:50:55;;;;;;;4.15;1.90;;;;;;;;;;19899453;29;20107;-61
2022/02/05 19:11:33;;;;;;;6.60;2.40;;;;;;;;;;19896693;29;20059;-59
2022/02/05 19:21:35;;;;;;;11.20;3.95;;;;;;;;;;19894796;29;20071;-60
2022/02/05 19:31:37;;;;;;;4.47;1.92;;;;;;;;;;19895811;29;20429;-60
2022/02/05 19:41:40;;;;;;;6.13;1.92;;;;;;;;;;19894368;29;20496;-59
2022/02/05 19:51:43;;;;;;;3.20;1.52;;;;;;;;;;19893709;29;20065;-58
2022/02/05 20:01:44;;;;;;;3.80;1.55;;;;;;;;;;19892809;29;20047;-59
2022/02/05 20:11:46;;;;;;;3.75;1.60;;;;;;;;;;19892851;29;20096;-57
2022/02/05 20:21:49;;;;;;;4.32;1.73;;;;;;;;;;19875541;29;20474;-61
2022/02/05 20:31:52;;;;;;;4.50;2.00;;;;;;;;;;19891365;29;20050;-58
2022/02/05 20:41:56;;;;;;;5.40;2.22;;;;;;;;;;19890409;29;20054;-59
2022/02/05 20:51:59;;;;;;;5.50;1.87;;;;;;;;;;19890088;29;20066;-62
2022/02/05 21:02:01;;;;;;;3.08;1.88;;;;;;;;;;19889682;29;20481;-61
2022/02/05 21:12:03;;;;;;;4.88;2.20;;;;;;;;;;19889410;29;20389;-58
2022/02/05 21:22:05;;;;;;;4.05;1.10;;;;;;;;;;19887779;29;20139;-59
2022/02/05 21:32:10;;;;;;;2.83;1.42;;;;;;;;;;19888290;29;20135;-59
2022/02/05 21:42:12;;;;;;;4.10;1.90;;;;;;;;;;19897690;29;20488;-60
2022/02/05 21:52:14;;;;;;;2.78;1.20;;;;;;;;;;19902274;29;20119;-61
2022/02/05 22:02:19;;;;;;;4.63;1.60;;;;;;;;;;19902599;29;20062;-60
2022/02/05 22:12:22;;;;;;;3.38;1.30;;;;;;;;;;19903127;29;20059;-59
2022/02/05 22:22:23;;;;;;;5.38;1.48;;;;;;;;;;19901709;29;20066;-61
2022/02/05 22:32:25;;;;;;;2.42;1.25;;;;;;;;;;19901644;29;20058;-60
2022/02/05 22:42:28;;;;;;;1.92;1.10;;;;;;;;;;19901111;29;20143;-59
2022/02/05 22:52:29;;;;;;;3.00;1.15;;;;;;;;;;19899349;29;20046;-59
2022/02/05 23:02:31;;;;;;;3.13;1.10;;;;;;;;;;19884266;29;20058;-61
2022/02/05 23:43:19;;;;;;;2.50;1.10;;;;;;;;;;19883971;29;20059;-58
2022/02/05 23:53:21;;;;;;;4.63;1.13;;;;;;;;;;19896462;29;20063;-58
